Time;durP1;ratioP1;P1;durP2;ratioP2;P2;SDS_P1;SDS_P2;PMS_P1;PMS_P2;Temp;Humidity;BMP_temperature;BMP_pressure;BME280_temperature;BME280_humidity;BME280_pressure;Samples;Min_cycle;Max_cycle;Signal;HPM_P1;HPM_P2
2023/07/02 00:01:47;;;;;;;2.13;1.97;;;17.40;99.90;;;;;;5035824;28;20470;-70
2023/07/02 00:04:16;;;;;;;1.90;1.80;;;17.50;99.90;;;;;;5031760;28;20555;-69
2023/07/02 00:06:43;;;;;;;2.60;2.40;;;17.50;99.90;;;;;;5027392;28;20940;-70
2023/07/02 00:09:10;;;;;;;2.40;2.20;;;17.50;99.90;;;;;;5041428;28;20466;-69
2023/07/02 00:11:38;;;;;;;2.13;1.60;;;17.60;99.90;;;;;;5015229;28;20472;-69
2023/07/02 00:14:05;;;;;;;2.50;2.20;;;17.60;99.90;;;;;;5033980;28;20597;-69
2023/07/02 00:16:30;;;;;;;4.43;1.90;;;17.60;99.90;;;;;;5034493;28;20522;-69
2023/07/02 00:18:57;;;;;;;2.07;1.80;;;17.60;99.90;;;;;;5026161;28;20463;-68
2023/07/02 00:21:27;;;;;;;2.00;1.90;;;17.50;99.90;;;;;;5031158;28;20227;-70
2023/07/02 00:23:58;;;;;;;1.73;1.63;;;17.40;99.90;;;;;;5026707;28;20467;-70
2023/07/02 00:26:27;;;;;;;2.00;1.80;;;17.40;99.90;;;;;;5034634;28;20455;-70
2023/07/02 00:28:54;;;;;;;2.30;1.90;;;17.30;99.90;;;;;;5018960;28;20466;-70
2023/07/02 00:31:20;;;;;;;2.47;1.87;;;17.30;99.90;;;;;;5016403;28;20464;-69
2023/07/02 00:33:46;;;;;;;1.67;1.57;;;17.20;99.90;;;;;;5027056;28;20868;-70
2023/07/02 00:36:14;;;;;;;2.53;2.13;;;17.20;99.90;;;;;;5027338;28;20705;-70
2023/07/02 00:38:45;;;;;;;1.93;1.60;;;17.30;99.90;;;;;;5036298;28;20221;-70
2023/07/02 00:41:11;;;;;;;2.10;1.73;;;17.40;99.90;;;;;;5025925;28;21027;-69
2023/07/02 00:43:43;;;;;;;2.80;1.87;;;17.50;99.90;;;;;;5019910;28;20833;-70
2023/07/02 00:46:19;;;;;;;2.30;2.00;;;17.60;99.90;;;;;;5022796;28;20534;-70
2023/07/02 00:48:55;;;;;;;2.57;2.03;;;17.60;99.90;;;;;;5034416;28;20459;-70
2023/07/02 00:51:24;;;;;;;2.13;1.60;;;17.30;99.90;;;;;;5049105;28;20459;-70
2023/07/02 00:53:54;;;;;;;2.73;1.57;;;17.30;99.90;;;;;;5023862;28;20558;-69
2023/07/02 00:56:21;;;;;;;2.80;1.67;;;17.50;99.90;;;;;;5024832;28;20470;-69
2023/07/02 00:58:50;;;;;;;1.50;1.40;;;17.40;99.90;;;;;;5025361;28;20544;-70
2023/07/02 01:01:19;;;;;;;3.60;1.80;;;17.40;99.90;;;;;;5021903;28;20474;-71
2023/07/02 01:03:54;;;;;;;4.43;1.77;;;17.20;99.90;;;;;;5022565;28;20474;-70
2023/07/02 01:06:26;;;;;;;1.87;1.67;;;17.20;99.90;;;;;;5022949;28;21034;-70
2023/07/02 01:08:55;;;;;;;2.10;1.80;;;17.30;99.90;;;;;;5025076;28;20463;-70
2023/07/02 01:11:46;;;;;;;1.60;1.50;;;17.40;99.90;;;;;;5030773;28;21003;-70
2023/07/02 01:14:21;;;;;;;3.90;2.10;;;17.40;99.90;;;;;;5034241;28;20471;-70
2023/07/02 01:16:48;;;;;;;2.60;2.10;;;17.40;99.90;;;;;;5045242;28;20463;-70
2023/07/02 01:19:44;;;;;;;2.43;2.23;;;17.40;99.90;;;;;;5024412;28;20837;-70
2023/07/02 01:22:12;;;;;;;2.20;2.00;;;17.40;99.90;;;;;;5032780;28;20949;-70
2023/07/02 01:24:40;;;;;;;1.93;1.80;;;17.30;99.90;;;;;;5030567;28;20467;-70
2023/07/02 01:27:06;;;;;;;2.20;2.00;;;17.30;99.90;;;;;;5027084;28;20467;-69
2023/07/02 01:29:31;;;;;;;1.60;1.50;;;17.40;99.90;;;;;;5038313;28;20993;-71
2023/07/02 01:31:57;;;;;;;2.83;2.07;;;17.40;99.90;;;;;;5027603;28;20486;-70
2023/07/02 01:34:23;;;;;;;3.60;2.30;;;17.40;99.90;;;;;;5036975;28;20228;-71
2023/07/02 01:36:49;;;;;;;1.80;1.70;;;17.30;99.90;;;;;;5036930;28;20459;-70
2023/07/02 01:39:16;;;;;;;3.43;3.00;;;17.20;99.90;;;;;;5036139;28;20224;-70
2023/07/02 01:41:55;;;;;;;2.97;1.80;;;17.10;99.90;;;;;;5021425;28;20460;-70
2023/07/02 01:44:21;;;;;;;2.40;2.20;;;17.10;99.90;;;;;;5025902;28;20598;-70
2023/07/02 01:46:48;;;;;;;7.43;2.70;;;17.10;99.90;;;;;;5011436;28;20513;-70
2023/07/02 01:49:18;;;;;;;3.03;2.83;;;17.10;99.90;;;;;;5036975;28;20487;-70
2023/07/02 01:51:51;;;;;;;2.40;2.20;;;17.10;99.90;;;;;;5021344;28;21011;-70
2023/07/02 01:54:18;;;;;;;2.93;1.73;;;16.90;99.90;;;;;;5036673;28;20475;-69
2023/07/02 01:56:44;;;;;;;4.80;1.93;;;16.90;99.90;;;;;;5027520;28;20468;-70
2023/07/02 01:59:10;;;;;;;2.60;2.40;;;16.90;99.90;;;;;;5024220;28;21020;-70
2023/07/02 02:01:35;;;;;;;3.33;2.70;;;16.80;99.90;;;;;;5020966;28;20244;-71
2023/07/02 02:04:01;;;;;;;3.13;2.33;;;16.80;99.90;;;;;;5014500;28;20251;-70
2023/07/02 02:06:27;;;;;;;3.50;2.60;;;16.70;99.90;;;;;;5034146;28;20730;-70
2023/07/02 02:08:52;;;;;;;5.57;3.10;;;16.20;99.90;;;;;;5025816;28;20266;-70
2023/07/02 02:11:18;;;;;;;3.60;2.57;;;16.00;99.90;;;;;;5028606;28;20217;-70
2023/07/02 02:13:43;;;;;;;9.60;3.30;;;16.00;99.90;;;;;;5014838;28;20279;-71
2023/07/02 02:16:09;;;;;;;3.50;3.20;;;16.00;99.90;;;;;;5019236;28;20286;-70
2023/07/02 02:18:35;;;;;;;4.40;3.00;;;16.10;99.90;;;;;;5028474;28;20274;-70
2023/07/02 02:21:00;;;;;;;5.50;3.23;;;16.40;99.90;;;;;;5031494;28;20307;-69
2023/07/02 02:23:26;;;;;;;6.57;4.03;;;16.50;99.90;;;;;;5029482;28;20805;-71
2023/07/02 02:25:52;;;;;;;5.00;3.23;;;16.30;99.90;;;;;;5030918;28;20256;-72
2023/07/02 02:28:17;;;;;;;5.67;3.60;;;16.30;99.90;;;;;;5036914;28;20591;-70
2023/07/02 02:30:43;;;;;;;3.73;2.80;;;16.40;99.90;;;;;;5032564;28;20209;-69
2023/07/02 02:33:09;;;;;;;4.57;2.93;;;16.60;99.90;;;;;;5029847;28;20251;-71
2023/07/02 02:35:34;;;;;;;4.27;3.17;;;16.60;99.90;;;;;;5025801;28;20271;-70
2023/07/02 02:38:07;;;;;;;7.33;3.87;;;16.40;99.90;;;;;;5035248;28;20794;-70
2023/07/02 02:40:32;;;;;;;8.33;4.13;;;16.20;99.90;;;;;;5037084;28;20832;-71
2023/07/02 02:42:58;;;;;;;3.77;3.10;;;16.10;99.90;;;;;;5016306;28;20461;-70
2023/07/02 02:45:24;;;;;;;5.93;3.17;;;16.00;99.90;;;;;;5030170;28;20227;-71
2023/07/02 02:47:49;;;;;;;7.03;4.07;;;15.90;99.90;;;;;;5036305;28;20664;-71
2023/07/02 02:50:15;;;;;;;4.47;3.40;;;16.00;99.90;;;;;;5021679;28;20222;-72
2023/07/02 02:52:41;;;;;;;6.33;3.03;;;15.80;99.90;;;;;;5019622;28;20312;-70
2023/07/02 02:55:09;;;;;;;7.43;3.70;;;15.60;99.90;;;;;;5024136;28;20278;-70
2023/07/02 02:57:34;;;;;;;4.67;3.40;;;15.60;99.90;;;;;;5035273;28;20220;-70
2023/07/02 03:00:00;;;;;;;4.33;3.47;;;15.40;99.90;;;;;;5047009;28;20451;-69
2023/07/02 03:02:26;;;;;;;5.77;3.73;;;15.30;99.90;;;;;;5033869;28;20228;-70
2023/07/02 03:04:51;;;;;;;4.87;3.17;;;15.30;99.90;;;;;;5028606;28;20296;-69
2023/07/02 03:07:17;;;;;;;5.77;3.37;;;15.40;99.90;;;;;;5042909;28;20216;-70
2023/07/02 03:09:43;;;;;;;4.67;3.20;;;15.50;99.90;;;;;;5028041;28;20217;-71
2023/07/02 03:12:09;;;;;;;5.43;3.13;;;15.70;99.90;;;;;;5036880;28;20736;-70
2023/07/02 03:14:35;;;;;;;4.47;3.53;;;15.90;99.90;;;;;;5026431;28;20298;-71
2023/07/02 03:17:00;;;;;;;7.00;3.07;;;16.10;99.90;;;;;;5033997;28;20577;-70
2023/07/02 03:19:26;;;;;;;7.53;3.73;;;16.00;99.90;;;;;;5038970;28;20263;-70
2023/07/02 03:21:52;;;;;;;4.83;3.43;;;15.90;99.90;;;;;;5021762;28;20244;-70
2023/07/02 03:24:17;;;;;;;4.33;3.27;;;15.80;99.90;;;;;;5025466;28;20741;-70
2023/07/02 03:26:44;;;;;;;6.60;3.40;;;15.60;99.90;;;;;;5034269;28;20221;-70
2023/07/02 03:29:11;;;;;;;8.60;3.73;;;15.80;99.90;;;;;;5040347;28;20217;-70
2023/07/02 03:31:37;;;;;;;4.23;2.90;;;15.90;99.90;;;;;;5028145;28;21041;-70
2023/07/02 03:34:06;;;;;;;5.83;3.20;;;15.90;99.90;;;;;;5042837;28;20486;-70
2023/07/02 03:36:31;;;;;;;5.97;3.80;;;15.90;99.90;;;;;;5030643;28;21012;-70
2023/07/02 03:38:57;;;;;;;4.73;3.20;;;16.00;99.90;;;;;;5027455;28;20466;-69
2023/07/02 03:41:23;;;;;;;4.73;3.83;;;16.00;99.90;;;;;;5038813;28;20223;-71
2023/07/02 03:43:49;;;;;;;6.43;4.47;;;16.10;99.90;;;;;;5038678;28;20463;-70
2023/07/02 03:46:14;;;;;;;6.33;3.53;;;16.10;99.90;;;;;;5025593;28;20224;-70
2023/07/02 03:48:40;;;;;;;7.67;3.97;;;16.10;99.90;;;;;;5033827;28;20221;-70
2023/07/02 03:51:06;;;;;;;8.87;4.00;;;16.00;99.90;;;;;;5029133;28;20218;-71
2023/07/02 03:53:32;;;;;;;6.53;3.77;;;15.90;99.90;;;;;;5027028;28;20229;-70
2023/07/02 03:55:58;;;;;;;4.80;3.67;;;15.90;99.90;;;;;;5029784;28;20462;-70
2023/07/02 03:58:23;;;;;;;6.30;3.63;;;15.70;99.90;;;;;;5040148;28;20211;-70
2023/07/02 04:00:49;;;;;;;8.13;3.67;;;15.70;99.90;;;;;;5044086;28;20220;-70
2023/07/02 04:03:16;;;;;;;4.50;3.50;;;15.60;99.90;;;;;;5040164;28;20264;-72
2023/07/02 04:05:42;;;;;;;5.83;4.00;;;15.70;99.90;;;;;;5029053;28;20218;-70
2023/07/02 04:08:08;;;;;;;6.23;3.20;;;15.80;99.90;;;;;;5019115;28;20455;-70
2023/07/02 04:10:33;;;;;;;9.43;4.27;;;15.70;99.90;;;;;;5036594;28;20498;-70
2023/07/02 04:12:59;;;;;;;6.87;3.87;;;15.80;99.90;;;;;;5019750;28;20221;-70
2023/07/02 04:15:26;;;;;;;13.30;4.50;;;15.70;99.90;;;;;;5031269;28;20244;-72
2023/07/02 04:17:52;;;;;;;7.60;4.60;;;15.50;99.90;;;;;;5029531;28;20220;-70
2023/07/02 04:20:18;;;;;;;6.53;4.50;;;15.50;99.90;;;;;;5043287;28;20459;-70
2023/07/02 04:22:45;;;;;;;6.03;3.90;;;15.60;99.90;;;;;;5018653;28;20213;-70
2023/07/02 04:25:15;;;;;;;11.10;4.70;;;15.60;99.90;;;;;;5038477;28;21021;-69
2023/07/02 04:27:42;;;;;;;7.13;3.70;;;15.50;99.90;;;;;;5015925;28;20486;-70
2023/07/02 04:30:11;;;;;;;6.43;4.60;;;15.50;99.90;;;;;;5029788;28;20479;-69
2023/07/02 04:32:40;;;;;;;8.77;5.17;;;15.50;99.90;;;;;;5023421;28;20463;-70
2023/07/02 04:35:07;;;;;;;7.90;4.80;;;15.40;99.90;;;;;;5030660;28;20487;-70
2023/07/02 04:37:33;;;;;;;7.60;4.10;;;15.40;99.90;;;;;;5041901;28;20512;-70
2023/07/02 04:39:59;;;;;;;6.30;4.63;;;15.40;99.90;;;;;;5028842;28;20529;-70
2023/07/02 04:42:27;;;;;;;5.17;4.27;;;15.40;99.90;;;;;;5042098;28;20482;-70
2023/07/02 04:44:55;;;;;;;6.93;4.70;;;15.40;99.90;;;;;;5011166;28;20456;-70
2023/07/02 04:47:21;;;;;;;7.80;4.83;;;15.30;99.90;;;;;;5032776;28;20460;-70
2023/07/02 04:49:47;;;;;;;8.50;5.07;;;15.30;99.90;;;;;;5024607;28;20503;-70
2023/07/02 04:52:12;;;;;;;7.00;4.13;;;15.50;99.90;;;;;;5023191;28;20217;-70
2023/07/02 04:54:38;;;;;;;9.37;5.90;;;15.60;99.90;;;;;;5011878;28;20252;-70
2023/07/02 04:57:04;;;;;;;6.67;4.60;;;15.70;99.90;;;;;;5035971;28;20213;-70
2023/07/02 04:59:29;;;;;;;6.70;4.83;;;15.70;99.90;;;;;;5038875;28;20619;-69
2023/07/02 05:01:55;;;;;;;7.53;4.80;;;15.70;99.90;;;;;;5038104;28;20228;-69
2023/07/02 05:04:21;;;;;;;7.43;4.80;;;15.70;99.90;;;;;;5035280;28;20216;-70
2023/07/02 05:06:46;;;;;;;7.77;5.50;;;15.80;99.90;;;;;;5039613;28;20726;-70
2023/07/02 05:09:12;;;;;;;10.60;6.20;;;15.80;99.90;;;;;;5039459;28;20213;-70
2023/07/02 05:11:38;;;;;;;6.27;4.90;;;15.80;99.90;;;;;;5062384;28;20744;-70
2023/07/02 05:14:04;;;;;;;8.80;5.07;;;15.80;99.90;;;;;;5046074;28;20224;-70
2023/07/02 05:16:30;;;;;;;7.83;5.00;;;15.70;99.90;;;;;;5029170;28;20710;-71
2023/07/02 05:18:56;;;;;;;13.07;6.23;;;15.70;99.90;;;;;;5037930;28;20226;-70
2023/07/02 05:21:22;;;;;;;12.77;5.63;;;15.60;99.90;;;;;;5041629;28;20446;-71
2023/07/02 05:23:48;;;;;;;9.23;5.40;;;15.60;99.90;;;;;;5040493;28;20216;-71
2023/07/02 05:26:14;;;;;;;11.83;6.40;;;15.60;99.90;;;;;;5036894;28;20963;-71
2023/07/02 05:28:40;;;;;;;8.43;5.93;;;15.70;99.90;;;;;;5031012;28;20498;-70
2023/07/02 05:31:05;;;;;;;13.17;6.87;;;15.70;99.90;;;;;;5044917;28;20216;-70
2023/07/02 05:33:33;;;;;;;10.27;6.27;;;15.70;99.90;;;;;;5044441;28;20583;-72
2023/07/02 05:35:59;;;;;;;9.63;6.13;;;15.70;99.90;;;;;;5041306;28;20263;-71
2023/07/02 05:38:24;;;;;;;14.60;7.40;;;15.70;99.90;;;;;;5041997;28;20447;-70
2023/07/02 05:40:50;;;;;;;14.77;8.50;;;15.80;99.90;;;;;;5046234;28;20216;-72
2023/07/02 05:43:16;;;;;;;13.53;6.80;;;15.90;99.90;;;;;;5031151;28;20287;-71
2023/07/02 05:45:41;;;;;;;13.47;7.67;;;15.90;99.90;;;;;;5043289;28;20220;-70
2023/07/02 05:48:07;;;;;;;22.00;9.00;;;15.90;99.90;;;;;;5039625;28;20300;-70
2023/07/02 05:50:33;;;;;;;14.33;8.10;;;15.90;99.90;;;;;;5048174;28;20233;-71
2023/07/02 05:52:59;;;;;;;13.47;8.17;;;15.90;99.90;;;;;;5033270;28;20223;-70
2023/07/02 05:55:25;;;;;;;12.00;7.90;;;16.00;99.90;;;;;;5039637;28;20254;-70
2023/07/02 05:57:50;;;;;;;17.03;8.97;;;16.10;99.90;;;;;;5040477;28;20236;-71
2023/07/02 06:00:16;;;;;;;18.23;7.63;;;16.20;99.90;;;;;;5038757;28;20538;-72
2023/07/02 06:02:46;;;;;;;15.00;7.63;;;16.20;99.90;;;;;;5040348;28;20212;-71
2023/07/02 06:05:12;;;;;;;11.57;7.57;;;16.10;99.90;;;;;;5045157;28;20459;-70
2023/07/02 06:07:37;;;;;;;10.73;7.57;;;16.20;99.90;;;;;;5026685;28;20467;-70
2023/07/02 06:10:03;;;;;;;12.60;8.07;;;16.30;99.90;;;;;;5028298;28;20241;-71
2023/07/02 06:12:29;;;;;;;12.50;7.23;;;16.30;99.90;;;;;;5051155;28;20215;-71
2023/07/02 06:14:55;;;;;;;13.83;6.70;;;16.40;99.90;;;;;;5048098;28;20232;-71
2023/07/02 06:17:22;;;;;;;16.20;8.10;;;16.40;99.90;;;;;;5036497;28;20248;-71
2023/07/02 06:19:48;;;;;;;14.80;8.43;;;16.50;99.90;;;;;;5036196;28;20221;-70
2023/07/02 06:22:13;;;;;;;14.70;8.60;;;16.60;99.90;;;;;;5046614;28;20458;-71
2023/07/02 06:24:39;;;;;;;14.73;8.30;;;16.60;99.90;;;;;;5034811;28;20231;-71
2023/07/02 06:27:05;;;;;;;22.83;8.50;;;16.60;99.90;;;;;;5039966;28;20303;-72
2023/07/02 06:29:30;;;;;;;18.40;7.77;;;16.60;99.90;;;;;;5053465;28;20213;-71
2023/07/02 06:31:56;;;;;;;14.33;8.43;;;16.70;99.90;;;;;;5035176;28;20643;-70
2023/07/02 06:34:21;;;;;;;12.27;7.90;;;16.80;99.90;;;;;;5055431;28;20761;-71
2023/07/02 06:36:48;;;;;;;11.60;7.67;;;16.80;99.90;;;;;;5039950;28;20709;-71
2023/07/02 06:39:13;;;;;;;13.17;7.40;;;16.80;99.90;;;;;;5032176;28;20213;-71
2023/07/02 06:41:39;;;;;;;17.43;9.50;;;16.80;99.90;;;;;;5040473;28;20466;-72
2023/07/02 06:44:05;;;;;;;12.97;8.73;;;16.90;99.90;;;;;;5052039;28;20585;-71
2023/07/02 06:46:30;;;;;;;15.53;8.60;;;16.90;99.90;;;;;;5045487;28;20224;-70
2023/07/02 06:48:56;;;;;;;13.40;7.90;;;16.90;99.90;;;;;;5038490;28;20225;-71
2023/07/02 06:51:22;;;;;;;13.93;8.60;;;17.00;99.90;;;;;;5042650;28;20277;-71
2023/07/02 06:53:48;;;;;;;12.87;7.83;;;17.10;99.90;;;;;;5044084;28;20326;-71
2023/07/02 06:56:14;;;;;;;9.70;6.87;;;17.10;99.90;;;;;;5046537;28;20210;-72
2023/07/02 06:58:42;;;;;;;12.73;8.37;;;17.20;99.90;;;;;;5047592;28;20259;-71
2023/07/02 07:01:08;;;;;;;12.30;7.57;;;17.30;99.90;;;;;;5033688;28;20217;-71
2023/07/02 07:03:34;;;;;;;17.00;9.03;;;17.40;99.90;;;;;;5049453;28;20970;-71
2023/07/02 07:06:00;;;;;;;11.40;8.70;;;17.50;99.90;;;;;;5047955;28;20686;-71
2023/07/02 07:08:25;;;;;;;15.53;8.67;;;17.60;99.90;;;;;;5050690;28;20468;-71
2023/07/02 07:10:51;;;;;;;17.20;8.83;;;17.70;99.90;;;;;;5047837;28;20239;-71
2023/07/02 07:13:17;;;;;;;12.57;8.80;;;17.70;99.90;;;;;;5046729;28;20263;-71
2023/07/02 07:15:43;;;;;;;13.30;8.20;;;17.80;99.90;;;;;;5042016;28;20232;-71
2023/07/02 07:18:09;;;;;;;14.63;8.73;;;17.90;99.90;;;;;;5032467;28;20303;-71
2023/07/02 07:20:35;;;;;;;17.27;7.90;;;18.00;99.90;;;;;;5039333;28;20868;-71
2023/07/02 07:23:02;;;;;;;17.77;7.93;;;18.10;99.90;;;;;;5038045;28;20463;-71
2023/07/02 07:25:28;;;;;;;15.93;8.60;;;18.10;99.90;;;;;;5032514;28;20225;-72
2023/07/02 07:27:54;;;;;;;10.63;7.20;;;18.30;99.90;;;;;;5063037;28;20447;-71
2023/07/02 07:30:22;;;;;;;14.00;8.10;;;18.30;99.90;;;;;;5041825;28;20208;-71
2023/07/02 07:32:52;;;;;;;11.87;7.13;;;18.40;99.90;;;;;;5033511;28;20217;-73
2023/07/02 07:35:22;;;;;;;13.27;8.43;;;18.50;99.90;;;;;;5032148;28;20452;-71
2023/07/02 07:37:48;;;;;;;14.70;8.80;;;18.50;99.90;;;;;;5033728;28;20447;-71
2023/07/02 07:40:15;;;;;;;13.50;8.40;;;18.70;99.90;;;;;;5029530;28;20497;-71
2023/07/02 07:42:42;;;;;;;14.57;7.53;;;18.80;99.90;;;;;;5042222;28;20459;-71
2023/07/02 07:45:09;;;;;;;14.10;9.10;;;18.80;99.90;;;;;;5035567;28;20477;-71
2023/07/02 07:47:35;;;;;;;11.77;7.87;;;19.00;99.90;;;;;;5050631;28;20521;-71
2023/07/02 07:50:01;;;;;;;11.97;8.77;;;19.10;99.90;;;;;;5029072;28;21201;-71
2023/07/02 07:52:27;;;;;;;13.13;8.27;;;19.20;99.90;;;;;;5048333;28;20221;-72
2023/07/02 07:54:53;;;;;;;12.73;7.80;;;19.20;99.90;;;;;;5036202;28;20224;-71
2023/07/02 07:57:18;;;;;;;11.07;7.97;;;19.40;99.90;;;;;;5043377;28;20221;-71
2023/07/02 07:59:44;;;;;;;12.87;8.30;;;19.50;99.90;;;;;;5042723;28;21122;-71
2023/07/02 08:02:10;;;;;;;13.43;8.93;;;19.60;99.90;;;;;;5039939;28;20219;-72
2023/07/02 08:04:35;;;;;;;16.23;9.43;;;19.70;99.90;;;;;;5035845;28;20229;-72
2023/07/02 08:07:04;;;;;;;13.70;8.03;;;19.90;99.90;;;;;;5043605;28;20250;-71
2023/07/02 08:09:29;;;;;;;11.97;8.30;;;19.80;99.90;;;;;;5044227;28;20236;-71
2023/07/02 08:11:55;;;;;;;13.60;9.03;;;19.90;99.90;;;;;;5041920;28;20509;-72
2023/07/02 08:14:21;;;;;;;14.70;8.43;;;19.90;99.90;;;;;;5026972;28;20279;-71
2023/07/02 08:16:46;;;;;;;20.40;10.07;;;20.20;99.90;;;;;;5030133;28;20216;-71
2023/07/02 08:19:12;;;;;;;13.37;8.57;;;20.30;99.90;;;;;;5049056;28;20618;-71
2023/07/02 08:21:38;;;;;;;24.33;7.37;;;20.30;99.90;;;;;;5038707;28;20224;-71
2023/07/02 08:24:04;;;;;;;10.67;6.83;;;20.30;99.90;;;;;;5053438;28;20738;-71
2023/07/02 08:26:29;;;;;;;12.37;7.27;;;20.40;99.90;;;;;;5048373;28;20220;-71
2023/07/02 08:28:55;;;;;;;11.83;8.07;;;20.60;99.90;;;;;;5021727;28;20240;-73
2023/07/02 08:31:21;;;;;;;10.73;7.17;;;20.70;99.90;;;;;;5029955;28;20247;-71
2023/07/02 08:33:47;;;;;;;11.10;8.07;;;20.70;99.90;;;;;;5032617;28;20217;-71
2023/07/02 08:36:13;;;;;;;12.00;7.63;;;20.70;99.30;;;;;;5044096;28;20678;-71
2023/07/02 08:38:41;;;;;;;16.07;7.93;;;20.80;99.00;;;;;;5028389;28;20631;-73
2023/07/02 08:41:07;;;;;;;14.30;8.30;;;20.80;98.30;;;;;;5040472;28;20451;-71
2023/07/02 08:43:33;;;;;;;9.83;7.43;;;20.80;98.80;;;;;;5040140;28;20606;-72
2023/07/02 08:45:59;;;;;;;12.50;8.77;;;20.90;98.90;;;;;;5043834;28;20232;-72
2023/07/02 08:48:26;;;;;;;9.93;7.67;;;20.90;98.60;;;;;;5037362;28;20456;-72
2023/07/02 08:50:52;;;;;;;9.80;7.10;;;20.90;98.30;;;;;;5041829;28;20221;-72
2023/07/02 08:53:18;;;;;;;12.93;8.13;;;21.00;98.40;;;;;;5031971;28;20526;-72
2023/07/02 08:55:44;;;;;;;12.40;8.37;;;21.20;98.30;;;;;;5033042;28;20223;-72
2023/07/02 08:58:10;;;;;;;9.00;6.70;;;21.30;98.80;;;;;;5034357;28;20447;-72
2023/07/02 09:00:36;;;;;;;10.83;7.60;;;21.50;97.60;;;;;;5031334;28;20240;-71
2023/07/02 09:03:15;;;;;;;12.77;7.60;;;21.50;97.10;;;;;;5050101;28;20453;-72
2023/07/02 09:05:52;;;;;;;10.73;8.80;;;21.30;96.90;;;;;;5028588;28;20503;-71
2023/07/02 09:08:27;;;;;;;11.83;8.40;;;21.20;97.10;;;;;;5046918;28;20439;-72
2023/07/02 09:10:54;;;;;;;10.70;8.70;;;21.20;97.30;;;;;;5045887;28;20479;-73
2023/07/02 09:13:19;;;;;;;16.50;8.80;;;21.50;97.10;;;;;;5027878;28;20510;-72
2023/07/02 09:15:45;;;;;;;10.90;7.97;;;21.60;97.00;;;;;;5045377;28;20451;-72
2023/07/02 09:18:24;;;;;;;12.83;8.50;;;21.40;97.60;;;;;;5035638;28;20259;-72
2023/07/02 09:20:56;;;;;;;14.20;8.97;;;21.40;97.10;;;;;;5035373;28;20446;-72
2023/07/02 09:23:21;;;;;;;15.93;8.70;;;21.50;97.00;;;;;;5033472;28;20487;-71
2023/07/02 09:25:47;;;;;;;19.90;9.87;;;21.70;97.10;;;;;;5037323;28;20532;-72
2023/07/02 09:28:22;;;;;;;11.97;9.20;;;21.80;96.90;;;;;;5042078;28;20231;-72
2023/07/02 09:30:55;;;;;;;11.23;8.40;;;21.80;96.60;;;;;;5039920;28;20297;-72
2023/07/02 09:33:23;;;;;;;10.20;8.00;;;21.80;96.60;;;;;;5033869;28;20475;-72
2023/07/02 09:35:50;;;;;;;14.70;9.70;;;21.70;96.20;;;;;;5040958;28;20595;-73
2023/07/02 09:38:16;;;;;;;14.40;8.20;;;21.70;96.10;;;;;;5050391;28;20574;-72
2023/07/02 09:40:49;;;;;;;16.43;9.40;;;21.80;95.80;;;;;;5027581;28;20465;-72
2023/07/02 09:43:16;;;;;;;13.20;8.53;;;22.00;95.90;;;;;;5037811;28;20719;-72
2023/07/02 09:45:47;;;;;;;13.43;9.13;;;22.20;95.50;;;;;;5048378;28;20455;-72
2023/07/02 09:48:17;;;;;;;13.00;9.10;;;22.40;95.10;;;;;;5048711;28;20475;-72
2023/07/02 09:50:44;;;;;;;14.03;8.83;;;22.30;95.30;;;;;;5024315;28;20451;-72
2023/07/02 09:53:11;;;;;;;11.83;7.87;;;22.20;95.40;;;;;;5025994;28;20457;-72
2023/07/02 09:55:39;;;;;;;13.00;8.27;;;22.10;95.70;;;;;;5044464;28;21019;-72
2023/07/02 09:58:06;;;;;;;12.37;7.90;;;22.00;95.80;;;;;;5034734;28;20527;-72
2023/07/02 10:00:31;;;;;;;11.17;8.40;;;21.90;95.80;;;;;;5050032;28;20451;-72
2023/07/02 10:02:57;;;;;;;14.53;9.43;;;21.90;95.60;;;;;;5047935;28;20522;-73
2023/07/02 10:05:27;;;;;;;11.30;8.30;;;21.80;95.40;;;;;;5031240;28;20216;-71
2023/07/02 10:07:53;;;;;;;12.40;8.83;;;21.80;95.30;;;;;;5039905;28;20459;-71
2023/07/02 10:10:45;;;;;;;12.60;8.17;;;21.70;94.60;;;;;;5036712;28;20463;-72
2023/07/02 10:13:11;;;;;;;12.83;8.23;;;21.80;94.10;;;;;;5031678;28;20870;-72
2023/07/02 10:15:39;;;;;;;13.03;8.10;;;21.90;94.10;;;;;;5040296;28;20529;-72
2023/07/02 10:18:05;;;;;;;12.63;8.40;;;22.20;94.60;;;;;;5040750;28;20212;-72
2023/07/02 10:20:33;;;;;;;14.90;9.03;;;22.40;94.60;;;;;;5051155;28;20965;-72
2023/07/02 10:23:01;;;;;;;18.13;8.80;;;22.50;93.30;;;;;;5041259;28;20466;-72
2023/07/02 10:25:38;;;;;;;14.17;8.60;;;22.60;93.40;;;;;;5037048;28;20509;-71
2023/07/02 10:28:24;;;;;;;14.73;10.00;;;22.70;93.20;;;;;;5044017;28;20470;-74
2023/07/02 10:30:52;;;;;;;13.80;8.80;;;22.80;93.60;;;;;;5017007;28;20459;-72
2023/07/02 10:33:18;;;;;;;13.27;8.50;;;22.80;93.30;;;;;;5038823;28;20472;-72
2023/07/02 10:35:49;;;;;;;11.60;8.30;;;22.80;92.00;;;;;;5036446;28;20475;-72
2023/07/02 10:38:19;;;;;;;17.23;9.60;;;22.80;91.60;;;;;;5048133;28;20447;-72
2023/07/02 10:40:46;;;;;;;16.20;10.30;;;23.00;92.10;;;;;;5044318;28;20455;-72
2023/07/02 10:43:12;;;;;;;17.70;10.30;;;23.20;92.30;;;;;;5066348;28;22174;-72
2023/07/02 10:45:39;;;;;;;19.63;9.73;;;23.50;91.20;;;;;;5049014;28;20454;-73
2023/07/02 10:48:09;;;;;;;15.27;9.97;;;23.50;90.60;;;;;;5031166;28;20439;-73
2023/07/02 10:50:35;;;;;;;17.47;10.90;;;23.70;90.50;;;;;;5037439;28;20463;-72
2023/07/02 10:53:00;;;;;;;15.37;8.53;;;23.50;90.30;;;;;;5031318;28;20499;-74
2023/07/02 10:55:31;;;;;;;19.43;10.70;;;23.50;91.30;;;;;;5051032;28;20959;-72
2023/07/02 10:58:07;;;;;;;13.30;9.87;;;23.60;91.00;;;;;;5050863;28;20765;-73
2023/07/02 11:00:46;;;;;;;13.53;9.40;;;23.10;92.00;;;;;;5075155;28;20459;-71
2023/07/02 11:03:23;;;;;;;12.57;10.03;;;23.20;92.20;;;;;;5053065;28;20454;-72
2023/07/02 11:05:50;;;;;;;14.60;9.60;;;23.20;92.00;;;;;;5048962;28;20459;-72
2023/07/02 11:08:17;;;;;;;15.20;9.30;;;23.20;92.30;;;;;;5045941;28;20542;-72
2023/07/02 11:10:43;;;;;;;11.90;9.43;;;23.50;91.60;;;;;;5040757;28;20461;-72
2023/07/02 11:13:19;;;;;;;16.70;9.90;;;23.40;91.70;;;;;;5033838;28;21043;-72
2023/07/02 11:15:46;;;;;;;14.80;9.83;;;23.30;92.00;;;;;;5029662;28;20455;-73
2023/07/02 11:18:12;;;;;;;15.30;9.90;;;23.20;92.10;;;;;;5043870;28;20454;-72
2023/07/02 11:20:39;;;;;;;15.63;9.67;;;23.20;91.90;;;;;;5037331;28;20448;-72
2023/07/02 11:23:06;;;;;;;19.27;10.43;;;23.20;91.40;;;;;;5045084;28;20611;-73
2023/07/02 11:25:31;;;;;;;14.37;10.90;;;23.20;91.00;;;;;;5035085;28;20462;-73
2023/07/02 11:28:03;;;;;;;16.33;10.53;;;23.10;91.20;;;;;;5056601;28;20450;-73
2023/07/02 11:30:29;;;;;;;12.90;9.93;;;23.10;91.20;;;;;;5054449;28;20220;-72
2023/07/02 11:32:56;;;;;;;15.53;9.60;;;23.20;91.00;;;;;;5045030;28;20445;-72
2023/07/02 11:35:33;;;;;;;13.83;9.83;;;23.10;90.80;;;;;;5046026;28;20258;-74
2023/07/02 11:37:58;;;;;;;13.57;10.20;;;22.90;91.50;;;;;;5037367;28;20451;-72
2023/07/02 11:40:24;;;;;;;17.83;10.60;;;22.90;91.50;;;;;;5043786;28;20471;-72
2023/07/02 11:42:50;;;;;;;16.10;10.93;;;23.10;91.40;;;;;;5051826;28;20710;-73
2023/07/02 11:45:15;;;;;;;15.70;10.50;;;23.20;91.50;;;;;;5051466;28;21180;-73
2023/07/02 11:47:41;;;;;;;15.00;11.03;;;23.40;91.30;;;;;;5044692;28;20253;-72
2023/07/02 11:50:07;;;;;;;14.50;9.93;;;23.40;91.00;;;;;;5044504;28;20220;-73
2023/07/02 11:52:33;;;;;;;16.83;10.17;;;23.40;90.20;;;;;;5043453;28;20604;-72
2023/07/02 11:54:58;;;;;;;15.43;10.23;;;23.30;90.10;;;;;;5053291;28;20446;-72
2023/07/02 11:57:24;;;;;;;15.67;9.10;;;23.20;90.00;;;;;;5047500;28;20598;-72
2023/07/02 11:59:52;;;;;;;11.00;8.97;;;23.00;90.60;;;;;;5056137;28;20854;-73
2023/07/02 12:02:18;;;;;;;16.80;9.30;;;23.10;90.30;;;;;;5044326;28;20225;-72
2023/07/02 12:04:43;;;;;;;13.07;9.90;;;23.10;89.60;;;;;;5029683;28;20462;-72
2023/07/02 12:07:09;;;;;;;16.77;9.30;;;23.20;89.40;;;;;;5037682;28;20461;-72
2023/07/02 12:09:36;;;;;;;17.17;10.50;;;23.40;90.10;;;;;;5047042;28;20303;-72
2023/07/02 12:12:02;;;;;;;16.90;11.03;;;23.50;90.00;;;;;;5032641;28;20243;-72
2023/07/02 12:14:27;;;;;;;15.53;9.30;;;23.70;89.00;;;;;;5040018;28;20521;-71
2023/07/02 12:16:53;;;;;;;17.80;10.33;;;23.80;89.90;;;;;;5036860;28;20981;-72
2023/07/02 12:19:18;;;;;;;15.03;9.70;;;23.90;89.00;;;;;;5037806;28;20237;-72
2023/07/02 12:21:44;;;;;;;15.13;9.40;;;24.10;87.50;;;;;;5042768;28;21647;-72
2023/07/02 12:24:10;;;;;;;13.50;8.03;;;24.20;85.90;;;;;;5035964;28;20230;-72
2023/07/02 12:26:37;;;;;;;11.77;8.33;;;24.30;81.50;;;;;;5039966;28;20762;-72
2023/07/02 12:29:03;;;;;;;11.57;8.10;;;24.40;82.40;;;;;;5037465;28;20503;-70
2023/07/02 12:31:30;;;;;;;12.87;8.07;;;24.30;80.40;;;;;;5044050;28;20462;-71
2023/07/02 12:33:55;;;;;;;15.47;9.40;;;24.40;77.50;;;;;;5036453;28;20477;-70
2023/07/02 12:36:21;;;;;;;13.50;8.60;;;24.30;79.50;;;;;;5047670;28;20550;-71
2023/07/02 12:38:47;;;;;;;12.77;8.13;;;24.20;81.20;;;;;;5046710;28;20601;-72
2023/07/02 12:41:13;;;;;;;13.07;8.30;;;24.10;81.60;;;;;;5027658;28;20366;-72